Terminal Aerodrome Forecast
Issued by NWS

Home | Current Version | Previous Version | Text Only | Print | Product List | Glossary On
Versions: 1 2 3 4 5 6 7 8 9 10 11 12 13 14 15 16 17 18 19 20 21 22 23 24 25 26 27 28 29 30
156
FTUS46 KEKA 200520
TAFCEC
TAF
KCEC 200520Z 2006/2106 13007KT 5SM -SHRA BR VCTS FEW025 SCT035
      OVC050CB
     FM201800 19008KT P6SM VCSH SCT035 BKN060
     FM210000 16005KT P6SM SCT025 OVC060=

USA.gov is the U.S. government's official web portal to all federal, state and local government web resources and services.